Anaktuvuk, Alaska
Current Conditions -  °F | °C
As of 8:56 PM on Thursday 27 Nov 2014 (Local Time) from PAKP Reporting Station
Clear Clear  
Wind Chill: -21°   Ceiling: Unl
Heat Index:   Visibility: 10mi
Dew Point: -9°   Wind: 17mph
Humidity: 66%   Direction: 190°S
Pressure: 30.06"   Gusts: NA
Location:  68.565°N, 152.085°W
Report Text: PAKP 280556Z AUTO 19015KT 10SM CLR M18/M23 A3006 RMK AO1 11170 21190 57014
Loading
Personal Weather Stations






























Interactive Weather Map New forecast layout! Learn more

10-Day Weather Forecast

Advertisements
Track Severe Weather on mobile